Fort Kent Mills, Maine
Current Conditions -  °F | °C
As of 10:53 PM on Friday 28 Nov 2014 (Local Time) from KFVE Reporting Station
Broken Clouds Broken Clouds  
Wind Chill:   Ceiling: 1300
Heat Index: 11°   Visibility: 10mi
Dew Point:   Wind: 6mph
Humidity: 88%   Direction: 340°NNW
Pressure: 30.01"   Gusts: NA
Location:  47.24°N, 68.58°W
Report Text: KFVE 290353Z AUTO 34005KT 10SM BKN013 M12/M13 A3001 RMK AO2 SLP181 T11171133
Loading
Personal Weather Stations






























Interactive Weather Map New forecast layout! Learn more

10-Day Weather Forecast

Advertisements
Track Severe Weather on mobile